createdAt,value
2019-06-27T00:01:23.087Z,101799.55
2019-06-27T00:03:53.470Z,101794.11
2019-06-27T00:06:24.492Z,101801.27
2019-06-27T00:08:55.006Z,101798.28
2019-06-27T00:11:25.483Z,101807.50
2019-06-27T00:13:55.782Z,101815.27
2019-06-27T00:16:26.116Z,101812.00
2019-06-27T00:18:56.438Z,101813.61
2019-06-27T00:21:27.061Z,101824.54
2019-06-27T00:23:57.361Z,101822.44
2019-06-27T00:26:27.768Z,101828.50
2019-06-27T00:28:58.101Z,101821.08
2019-06-27T00:31:28.721Z,101822.84
2019-06-27T00:33:59.402Z,101838.21
2019-06-27T00:36:29.871Z,101828.01
2019-06-27T00:39:00.255Z,101835.60
2019-06-27T00:41:30.676Z,101844.42
2019-06-27T00:44:01.067Z,101847.31
2019-06-27T00:46:31.386Z,101846.06
2019-06-27T00:49:01.886Z,101845.61
2019-06-27T00:51:32.402Z,101853.23
2019-06-27T00:54:03.006Z,101845.62
2019-06-27T00:56:33.481Z,101851.19
2019-06-27T00:59:03.931Z,101854.75
2019-06-27T01:01:34.375Z,101851.41
2019-06-27T01:04:04.943Z,101850.63
2019-06-27T01:06:35.470Z,101859.36
2019-06-27T01:09:07.302Z,101865.42
2019-06-27T01:11:37.774Z,101858.48
2019-06-27T01:14:08.224Z,101868.44
2019-06-27T01:16:38.613Z,101869.38
2019-06-27T01:19:09.152Z,101884.05
2019-06-27T01:21:39.744Z,101880.23
2019-06-27T01:24:10.250Z,101878.33
2019-06-27T01:26:40.690Z,101877.20
2019-06-27T01:29:11.374Z,101881.53
2019-06-27T01:31:41.875Z,101895.64
2019-06-27T01:34:12.329Z,101890.75
2019-06-27T01:36:42.831Z,101893.17
2019-06-27T01:39:13.263Z,101896.26
2019-06-27T01:41:44.028Z,101894.23
2019-06-27T01:44:31.950Z,101903.85
2019-06-27T01:47:03.209Z,101891.95
2019-06-27T01:49:33.697Z,101901.16
2019-06-27T01:52:04.295Z,101898.15
2019-06-27T01:54:34.730Z,101903.57
2019-06-27T01:57:05.313Z,101893.20
2019-06-27T01:59:36.104Z,101900.38
2019-06-27T02:02:07.317Z,101902.69
2019-06-27T02:04:37.962Z,101909.59
2019-06-27T02:07:08.397Z,101906.03
2019-06-27T02:09:39.162Z,101907.15
2019-06-27T02:12:09.603Z,101915.20
2019-06-27T02:14:41.428Z,101916.25
2019-06-27T02:17:11.855Z,101914.22
2019-06-27T02:19:42.339Z,101917.76
2019-06-27T02:22:13.073Z,101916.20
2019-06-27T02:24:43.418Z,101918.16
2019-06-27T02:27:13.913Z,101918.07
2019-06-27T02:29:44.477Z,101912.17
2019-06-27T02:32:14.847Z,101915.27
2019-06-27T02:34:45.249Z,101931.61
2019-06-27T02:37:15.691Z,101918.95
2019-06-27T02:39:46.016Z,101913.84
2019-06-27T02:42:16.483Z,101925.95
2019-06-27T02:44:47.273Z,101921.17
2019-06-27T02:47:17.708Z,101918.80
2019-06-27T02:49:50.411Z,101913.00
2019-06-27T02:52:20.344Z,101921.91
2019-06-27T02:54:50.735Z,101930.98
2019-06-27T02:57:21.363Z,101933.78
2019-06-27T02:59:51.670Z,101937.56
2019-06-27T03:02:22.141Z,101940.27
2019-06-27T03:04:52.533Z,101938.23
2019-06-27T03:07:23.215Z,101941.59
2019-06-27T03:09:53.793Z,101948.86
2019-06-27T03:12:24.248Z,101943.14
2019-06-27T03:14:54.847Z,101942.55
2019-06-27T03:17:25.329Z,101942.56
2019-06-27T03:19:55.800Z,101940.86
2019-06-27T03:22:26.098Z,101942.17
2019-06-27T03:24:56.582Z,101945.19
2019-06-27T03:27:26.935Z,101943.16
2019-06-27T03:29:57.280Z,101942.30
2019-06-27T03:32:27.721Z,101946.22
2019-06-27T03:34:58.050Z,101939.48
2019-06-27T03:37:28.497Z,101945.95
2019-06-27T03:39:58.991Z,101946.94
2019-06-27T03:42:29.306Z,101948.06
2019-06-27T03:44:59.908Z,101947.02
2019-06-27T03:47:30.277Z,101955.99
2019-06-27T03:50:00.759Z,101955.34
2019-06-27T03:52:31.051Z,101959.44
2019-06-27T03:55:01.516Z,101968.03
2019-06-27T03:57:31.875Z,101963.14
2019-06-27T04:00:02.247Z,101967.41
2019-06-27T04:02:32.875Z,101969.09
2019-06-27T04:05:03.298Z,101969.69
2019-06-27T04:07:33.804Z,101975.08
2019-06-27T04:10:04.261Z,101982.85
2019-06-27T04:12:34.995Z,101990.52
2019-06-27T04:15:05.726Z,101986.92
2019-06-27T04:17:36.153Z,101987.74
2019-06-27T04:20:06.880Z,101988.41
2019-06-27T04:22:37.340Z,101982.44
2019-06-27T04:25:08.561Z,101980.06
2019-06-27T04:27:39.034Z,101992.34
2019-06-27T04:30:10.538Z,101991.07
2019-06-27T04:32:41.145Z,101991.27
2019-06-27T04:35:11.848Z,102002.66
2019-06-27T04:37:42.486Z,102000.27
2019-06-27T04:40:13.402Z,102004.44
2019-06-27T04:42:44.220Z,102004.09
2019-06-27T04:45:17.069Z,102009.55
2019-06-27T04:47:47.781Z,102001.30
2019-06-27T04:50:18.759Z,102005.64
2019-06-27T04:52:50.632Z,102005.25
2019-06-27T04:55:21.135Z,102008.83
2019-06-27T04:57:51.804Z,102003.05
2019-06-27T05:00:30.320Z,102011.70
2019-06-27T05:03:01.114Z,102006.71
2019-06-27T05:05:31.936Z,101998.72
2019-06-27T05:08:02.551Z,102000.72
2019-06-27T05:10:36.131Z,101990.39
2019-06-27T05:13:06.689Z,101982.13
2019-06-27T05:15:37.169Z,101999.70
2019-06-27T05:18:07.551Z,102000.80
2019-06-27T05:20:38.180Z,101995.73
2019-06-27T05:23:08.608Z,101987.97
2019-06-27T05:25:39.135Z,101996.05
2019-06-27T05:28:09.389Z,102002.16
2019-06-27T05:30:39.793Z,101995.07
2019-06-27T05:33:10.100Z,101995.45
2019-06-27T05:35:40.359Z,101992.41
2019-06-27T05:38:10.905Z,101989.15
2019-06-27T05:40:41.320Z,101997.61
2019-06-27T05:43:11.573Z,101999.68
2019-06-27T05:45:41.970Z,102003.14
2019-06-27T05:48:12.279Z,102012.33
2019-06-27T05:50:42.673Z,102010.22
2019-06-27T05:53:13.537Z,102027.72
2019-06-27T05:55:44.051Z,102023.71
2019-06-27T05:58:14.755Z,102025.57
2019-06-27T06:00:45.631Z,102023.92
2019-06-27T06:03:16.008Z,102036.19
2019-06-27T06:05:46.622Z,102032.94
2019-06-27T06:08:16.980Z,102036.00
2019-06-27T06:10:47.339Z,102038.61
2019-06-27T06:13:17.735Z,102034.49
2019-06-27T06:15:48.329Z,102033.77
2019-06-27T06:18:18.973Z,102035.14
2019-06-27T06:20:49.539Z,102042.52
2019-06-27T06:23:19.830Z,102049.88
2019-06-27T06:25:50.198Z,102034.70
2019-06-27T06:28:20.496Z,102036.45
2019-06-27T06:30:50.894Z,102033.34
2019-06-27T06:33:21.375Z,102030.83
2019-06-27T06:35:51.832Z,102029.89
2019-06-27T06:38:22.202Z,102031.35
2019-06-27T06:40:52.605Z,102042.12
2019-06-27T06:43:22.927Z,102031.83
2019-06-27T06:45:53.393Z,102030.81
2019-06-27T06:48:23.695Z,102030.33
2019-06-27T06:50:54.120Z,102026.30
2019-06-27T06:53:24.518Z,102032.42
2019-06-27T06:55:55.046Z,102029.72
2019-06-27T06:58:25.813Z,102038.62
2019-06-27T07:01:01.629Z,102034.69
2019-06-27T07:03:28.253Z,102020.09
2019-06-27T07:05:59.341Z,102020.69
2019-06-27T07:08:29.756Z,102010.67
2019-06-27T07:11:00.576Z,102008.88
2019-06-27T07:13:31.112Z,102009.81
2019-06-27T07:16:01.926Z,102022.30
2019-06-27T07:18:32.259Z,102022.64
2019-06-27T07:21:02.654Z,102018.97
2019-06-27T07:23:33.075Z,102025.22
2019-06-27T07:26:03.608Z,102029.94
2019-06-27T07:28:34.254Z,102026.77
2019-06-27T07:31:17.183Z,102030.82
2019-06-27T07:33:37.045Z,102036.58
2019-06-27T07:36:07.475Z,102039.52
2019-06-27T07:38:37.862Z,102037.16
2019-06-27T07:41:08.400Z,102038.65
2019-06-27T07:43:38.809Z,102039.91
2019-06-27T07:46:24.040Z,102030.27
2019-06-27T07:48:41.333Z,102032.95
2019-06-27T07:51:11.985Z,102029.65
2019-06-27T07:53:42.773Z,102025.59
2019-06-27T07:56:13.364Z,102031.34
2019-06-27T07:58:43.920Z,102031.75
2019-06-27T08:01:14.365Z,102027.84
2019-06-27T08:03:45.015Z,102034.92
2019-06-27T08:06:15.608Z,102039.63
2019-06-27T08:08:46.045Z,102030.39
2019-06-27T08:11:16.627Z,102031.32
2019-06-27T08:13:47.010Z,102034.94
2019-06-27T08:16:17.380Z,102035.92
2019-06-27T08:18:47.784Z,102036.74
2019-06-27T08:21:18.491Z,102030.46
2019-06-27T08:23:49.425Z,102044.36
2019-06-27T08:26:19.920Z,102037.36
2019-06-27T08:28:50.842Z,102039.21
2019-06-27T08:31:21.416Z,102032.52
2019-06-27T08:33:52.001Z,102033.02
2019-06-27T08:36:22.398Z,102028.00
2019-06-27T08:38:52.783Z,102025.98
2019-06-27T08:41:23.235Z,102030.98
2019-06-27T08:43:53.523Z,102025.76
2019-06-27T08:46:23.916Z,102024.58
2019-06-27T08:48:54.342Z,102033.06
2019-06-27T08:51:24.915Z,102032.22
2019-06-27T08:53:55.608Z,102017.48
2019-06-27T08:56:27.143Z,102012.25
2019-06-27T08:58:57.536Z,102034.52
2019-06-27T09:01:28.009Z,102026.66
2019-06-27T09:03:58.391Z,102026.11
2019-06-27T09:06:29.154Z,102026.48
2019-06-27T09:08:59.992Z,102020.28
2019-06-27T09:11:34.492Z,102023.51
2019-06-27T09:14:02.897Z,102016.10
2019-06-27T09:16:33.570Z,102021.83
2019-06-27T09:19:04.467Z,102002.97
2019-06-27T09:21:34.915Z,102010.95
2019-06-27T09:24:05.769Z,102008.87
2019-06-27T09:26:36.243Z,102016.25
2019-06-27T09:29:06.997Z,102014.01
2019-06-27T09:31:37.462Z,102010.00
2019-06-27T09:34:08.263Z,102015.41
2019-06-27T09:36:38.626Z,102005.66
2019-06-27T09:39:09.103Z,102003.48
2019-06-27T09:41:39.852Z,102002.09
2019-06-27T09:44:10.408Z,102006.74
2019-06-27T09:46:40.870Z,102012.30
2019-06-27T09:49:11.641Z,102011.47
2019-06-27T09:51:42.494Z,102019.11
2019-06-27T09:54:12.914Z,101998.76
2019-06-27T09:56:43.726Z,102008.34
2019-06-27T09:59:14.617Z,102006.06
2019-06-27T10:01:45.605Z,102006.94
2019-06-27T10:04:16.043Z,101989.16
2019-06-27T10:06:46.798Z,102004.31
2019-06-27T10:09:17.735Z,102009.91
2019-06-27T10:11:48.200Z,101992.77
2019-06-27T10:14:18.527Z,102001.30
2019-06-27T10:16:50.392Z,101998.20
2019-06-27T10:19:21.030Z,102008.54
2019-06-27T10:21:51.415Z,101999.39
2019-06-27T10:24:21.815Z,102002.39
2019-06-27T10:26:52.302Z,102002.45
2019-06-27T10:29:22.704Z,102002.05
2019-06-27T10:31:53.123Z,101991.36
2019-06-27T10:34:23.650Z,102002.23
2019-06-27T10:36:54.332Z,101995.34
2019-06-27T10:39:24.731Z,101985.14
2019-06-27T10:41:55.175Z,101993.68
2019-06-27T10:44:25.532Z,102000.67
2019-06-27T10:46:55.958Z,101998.16
2019-06-27T10:49:26.372Z,101992.21
2019-06-27T10:51:56.964Z,101996.72
2019-06-27T10:54:27.507Z,101992.39
2019-06-27T10:56:57.889Z,101995.16
2019-06-27T10:59:28.409Z,101986.41
2019-06-27T11:01:59.528Z,101996.83
2019-06-27T11:04:30.791Z,101999.52
2019-06-27T11:07:01.677Z,101995.98
2019-06-27T11:09:31.983Z,101983.19
2019-06-27T11:12:02.837Z,101976.41
2019-06-27T11:14:33.159Z,101983.12
2019-06-27T11:17:03.642Z,101987.35
2019-06-27T11:19:34.034Z,101980.23
2019-06-27T11:22:04.706Z,101987.77
2019-06-27T11:24:35.360Z,101978.96
2019-06-27T11:27:05.907Z,101967.39
2019-06-27T11:29:36.495Z,101970.84
2019-06-27T11:32:06.970Z,101959.88
2019-06-27T11:34:37.321Z,101962.88
2019-06-27T11:37:07.713Z,101949.62
2019-06-27T11:39:38.466Z,101945.08
2019-06-27T11:42:08.900Z,101938.41
2019-06-27T11:44:39.287Z,101949.22
2019-06-27T11:47:09.874Z,101945.97
2019-06-27T11:49:40.869Z,101944.53
2019-06-27T11:52:11.272Z,101937.66
2019-06-27T11:54:41.731Z,101933.09
2019-06-27T11:57:12.100Z,101941.74
2019-06-27T11:59:42.466Z,101919.33
2019-06-27T12:02:12.943Z,101924.95
2019-06-27T12:04:43.335Z,101920.17
2019-06-27T12:07:13.760Z,101908.65
2019-06-27T12:09:44.123Z,101914.44
2019-06-27T12:12:14.719Z,101906.66
2019-06-27T12:14:44.955Z,101910.38
2019-06-27T12:17:15.629Z,101912.31
2019-06-27T12:19:46.142Z,101908.73
2019-06-27T12:22:16.535Z,101910.12
2019-06-27T12:24:46.915Z,101908.34
2019-06-27T12:27:17.246Z,101912.31
2019-06-27T12:29:47.974Z,101900.34
2019-06-27T12:32:18.557Z,101895.53
2019-06-27T12:34:49.001Z,101902.41
2019-06-27T12:37:19.384Z,101896.73
2019-06-27T12:39:49.837Z,101892.29
2019-06-27T12:42:31.960Z,101899.94
2019-06-27T12:44:52.215Z,101891.10
2019-06-27T12:47:23.130Z,101894.34
2019-06-27T12:50:02.295Z,101885.19
2019-06-27T12:52:25.804Z,101886.38
2019-06-27T12:54:56.199Z,101882.78
2019-06-27T12:57:26.613Z,101879.80
2019-06-27T12:59:56.997Z,101872.59
2019-06-27T13:02:27.510Z,101867.97
2019-06-27T13:04:57.816Z,101873.94
2019-06-27T13:07:28.314Z,101863.67
2019-06-27T13:09:58.611Z,101860.91
2019-06-27T13:12:29.111Z,101860.66
2019-06-27T13:14:59.480Z,101858.68
2019-06-27T13:17:29.804Z,101854.36
2019-06-27T13:20:00.562Z,101856.13
2019-06-27T13:22:31.274Z,101854.06
2019-06-27T13:25:01.500Z,101846.34
2019-06-27T13:27:31.830Z,101848.42
2019-06-27T13:30:02.284Z,101847.99
2019-06-27T13:32:32.620Z,101833.23
2019-06-27T13:35:03.435Z,101838.73
2019-06-27T13:37:33.883Z,101835.59
2019-06-27T13:40:04.981Z,101831.22
2019-06-27T13:42:38.204Z,101828.34
2019-06-27T13:45:08.634Z,101830.92
2019-06-27T13:47:39.449Z,101832.44
2019-06-27T13:50:10.204Z,101825.01
2019-06-27T13:52:40.928Z,101834.50
2019-06-27T13:55:11.874Z,101831.47
2019-06-27T13:57:42.419Z,101827.06
2019-06-27T14:00:13.102Z,101815.98
2019-06-27T14:02:43.581Z,101821.08
2019-06-27T14:05:14.163Z,101819.71
2019-06-27T14:07:44.646Z,101821.42
2019-06-27T14:10:15.097Z,101810.81
2019-06-27T14:12:45.609Z,101806.04
2019-06-27T14:15:16.295Z,101805.19
2019-06-27T14:17:47.500Z,101802.48
2019-06-27T14:20:18.160Z,101806.64
2019-06-27T14:22:48.988Z,101799.42
2019-06-27T14:25:19.445Z,101799.13
2019-06-27T14:27:50.461Z,101801.17
2019-06-27T14:30:21.523Z,101808.36
2019-06-27T14:32:53.392Z,101807.97
2019-06-27T14:35:24.130Z,101792.55
2019-06-27T14:37:54.616Z,101788.59
2019-06-27T14:40:25.498Z,101791.44
2019-06-27T14:42:56.012Z,101789.87
2019-06-27T14:45:26.618Z,101790.01
2019-06-27T14:47:57.113Z,101794.37
2019-06-27T14:50:27.507Z,101793.79
2019-06-27T14:52:58.070Z,101793.50
2019-06-27T14:55:28.759Z,101790.44
2019-06-27T14:57:59.108Z,101783.33
2019-06-27T15:00:30.126Z,101781.61
2019-06-27T15:03:00.461Z,101784.51
2019-06-27T15:05:32.859Z,101782.26
2019-06-27T15:08:03.274Z,101783.63
2019-06-27T15:10:33.740Z,101780.28
2019-06-27T15:13:04.142Z,101782.31
2019-06-27T15:15:34.531Z,101773.98
2019-06-27T15:18:05.163Z,101774.27
2019-06-27T15:20:35.278Z,101764.58
2019-06-27T15:23:05.797Z,101772.56
2019-06-27T15:25:36.322Z,101765.32
2019-06-27T15:28:06.741Z,101758.59
2019-06-27T15:30:37.193Z,101764.15
2019-06-27T15:33:07.900Z,101758.77
2019-06-27T15:35:51.784Z,101761.83
2019-06-27T15:38:10.737Z,101754.75
2019-06-27T15:40:41.399Z,101755.39
2019-06-27T15:43:11.840Z,101754.03
2019-06-27T15:45:42.273Z,101747.01
2019-06-27T15:48:12.768Z,101756.85
2019-06-27T15:50:43.131Z,101752.13
2019-06-27T15:53:13.636Z,101754.46
2019-06-27T15:55:44.402Z,101752.08
2019-06-27T15:58:14.851Z,101753.59
2019-06-27T16:00:45.519Z,101747.12
2019-06-27T16:03:16.010Z,101756.17
2019-06-27T16:05:46.635Z,101752.19
2019-06-27T16:08:16.954Z,101744.98
2019-06-27T16:10:47.417Z,101752.70
2019-06-27T16:13:17.851Z,101754.27
2019-06-27T16:15:48.127Z,101755.47
2019-06-27T16:18:18.449Z,101753.50
2019-06-27T16:20:48.936Z,101758.38
2019-06-27T16:23:19.548Z,101754.13
2019-06-27T16:25:49.884Z,101757.06
2019-06-27T16:28:20.643Z,101758.72
2019-06-27T16:30:51.135Z,101760.60
2019-06-27T16:33:21.907Z,101755.95
2019-06-27T16:35:52.804Z,101760.73
2019-06-27T16:38:23.320Z,101756.52
2019-06-27T16:40:53.744Z,101763.98
2019-06-27T16:43:24.289Z,101763.20
2019-06-27T16:45:54.883Z,101762.13
2019-06-27T16:48:25.339Z,101757.32
2019-06-27T16:50:56.169Z,101758.05
2019-06-27T16:53:26.628Z,101756.26
2019-06-27T16:55:57.690Z,101752.81
2019-06-27T16:58:28.155Z,101764.10
2019-06-27T17:00:58.636Z,101767.75
2019-06-27T17:03:29.333Z,101765.61
2019-06-27T17:05:59.828Z,101770.64
2019-06-27T17:08:30.374Z,101768.33
2019-06-27T17:11:01.002Z,101765.59
2019-06-27T17:13:31.457Z,101769.84
2019-06-27T17:16:01.938Z,101774.69
2019-06-27T17:18:32.405Z,101780.41
2019-06-27T17:21:02.915Z,101773.00
2019-06-27T17:23:33.319Z,101778.17
2019-06-27T17:26:03.736Z,101779.67
2019-06-27T17:28:35.376Z,101783.69
2019-06-27T17:31:06.922Z,101783.90
2019-06-27T17:33:37.408Z,101785.58
2019-06-27T17:36:07.900Z,101774.08
2019-06-27T17:38:38.467Z,101780.91
2019-06-27T17:41:08.962Z,101781.06
2019-06-27T17:43:41.492Z,101789.55
2019-06-27T17:46:11.609Z,101792.92
2019-06-27T17:48:42.150Z,101791.98
2019-06-27T17:51:12.640Z,101795.67
2019-06-27T17:53:43.912Z,101793.67
2019-06-27T17:56:14.506Z,101797.27
2019-06-27T17:58:44.828Z,101798.66
2019-06-27T18:01:15.200Z,101803.04
2019-06-27T18:03:45.711Z,101801.61
2019-06-27T18:06:16.334Z,101801.14
2019-06-27T18:08:46.676Z,101801.14
2019-06-27T18:11:17.168Z,101801.64
2019-06-27T18:13:47.484Z,101800.28
2019-06-27T18:16:18.053Z,101804.49
2019-06-27T18:18:48.423Z,101809.64
2019-06-27T18:21:18.842Z,101806.85
2019-06-27T18:23:49.116Z,101805.36
2019-06-27T18:26:19.875Z,101809.06
2019-06-27T18:28:50.282Z,101809.33
2019-06-27T18:31:20.746Z,101805.84
2019-06-27T18:33:51.234Z,101807.94
2019-06-27T18:36:21.653Z,101811.45
2019-06-27T18:38:51.972Z,101813.72
2019-06-27T18:41:22.539Z,101816.20
2019-06-27T18:43:52.835Z,101815.31
2019-06-27T18:46:23.267Z,101811.33
2019-06-27T18:48:53.658Z,101813.70
2019-06-27T18:51:24.171Z,101820.05
2019-06-27T18:53:54.451Z,101821.41
2019-06-27T18:56:25.132Z,101817.08
2019-06-27T18:58:55.623Z,101825.22
2019-06-27T19:01:26.126Z,101828.20
2019-06-27T19:03:56.527Z,101829.89
2019-06-27T19:06:27.388Z,101836.03
2019-06-27T19:08:57.785Z,101841.59
2019-06-27T19:11:28.282Z,101844.48
2019-06-27T19:13:58.672Z,101846.13
2019-06-27T19:16:29.404Z,101845.17
2019-06-27T19:19:01.588Z,101848.58
2019-06-27T19:21:42.010Z,101848.82
2019-06-27T19:24:35.936Z,101860.70
2019-06-27T19:27:06.442Z,101866.27
2019-06-27T19:29:36.991Z,101861.78
2019-06-27T19:32:07.557Z,101863.06
2019-06-27T19:34:38.081Z,101866.02
2019-06-27T19:37:09.786Z,101869.87
2019-06-27T19:39:40.346Z,101875.34
2019-06-27T19:42:11.228Z,101880.02
2019-06-27T19:44:42.051Z,101883.38
2019-06-27T19:47:12.523Z,101888.81
2019-06-27T19:49:43.559Z,101893.23
2019-06-27T19:52:13.982Z,101895.50
2019-06-27T19:54:45.287Z,101897.80
2019-06-27T19:57:16.391Z,101905.16
2019-06-27T19:59:47.049Z,101907.23
2019-06-27T20:02:18.589Z,101908.03
2019-06-27T20:04:49.041Z,101914.38
2019-06-27T20:07:19.823Z,101909.51
2019-06-27T20:09:50.319Z,101918.85
2019-06-27T20:12:20.944Z,101919.77
2019-06-27T20:14:51.587Z,101911.16
2019-06-27T20:17:21.946Z,101922.89
2019-06-27T20:19:53.398Z,101925.66
2019-06-27T20:22:24.737Z,101927.47
2019-06-27T20:24:55.702Z,101935.53
2019-06-27T20:27:26.838Z,101944.65
2019-06-27T20:29:59.089Z,101946.09
2019-06-27T20:32:29.573Z,101941.56
2019-06-27T20:34:59.922Z,101954.41
2019-06-27T20:37:30.584Z,101948.28
2019-06-27T20:40:00.985Z,101950.09
2019-06-27T20:42:31.416Z,101957.11
2019-06-27T20:45:01.991Z,101956.28
2019-06-27T20:47:32.583Z,101964.64
2019-06-27T20:50:03.377Z,101955.68
2019-06-27T20:52:35.107Z,101962.55
2019-06-27T20:55:06.574Z,101964.20
2019-06-27T20:57:37.629Z,101971.10
2019-06-27T21:00:09.650Z,101973.51
2019-06-27T21:02:40.113Z,101977.55
2019-06-27T21:05:11.078Z,101975.45
2019-06-27T21:07:42.541Z,101985.13
2019-06-27T21:10:14.300Z,101981.33
2019-06-27T21:12:45.656Z,101980.87
2019-06-27T21:15:17.550Z,101979.89
2019-06-27T21:17:48.532Z,101983.56
2019-06-27T21:20:21.066Z,101987.23
2019-06-27T21:22:52.305Z,101992.68
2019-06-27T21:25:22.820Z,101991.48
2019-06-27T21:27:53.490Z,101995.27
2019-06-27T21:30:25.289Z,102001.77
2019-06-27T21:32:55.846Z,101998.03
2019-06-27T21:35:26.227Z,101996.72
2019-06-27T21:37:57.012Z,102004.30
2019-06-27T21:40:27.743Z,102000.60
2019-06-27T21:42:58.247Z,102001.62
2019-06-27T21:45:28.731Z,102000.06
2019-06-27T21:47:59.125Z,102003.18
2019-06-27T21:50:29.968Z,102002.28
2019-06-27T21:53:01.769Z,102001.71
2019-06-27T21:55:32.997Z,101991.59
2019-06-27T21:58:04.052Z,102001.03
2019-06-27T22:00:36.469Z,102002.67
2019-06-27T22:03:07.546Z,101998.01
2019-06-27T22:05:38.421Z,102006.23
2019-06-27T22:08:09.018Z,102002.84
2019-06-27T22:10:39.572Z,101997.94
2019-06-27T22:13:10.727Z,102009.99
2019-06-27T22:15:42.205Z,102019.40
2019-06-27T22:18:13.332Z,102014.77
2019-06-27T22:20:45.109Z,102015.97
2019-06-27T22:23:16.449Z,102017.59
2019-06-27T22:25:46.879Z,102021.56
2019-06-27T22:28:17.249Z,102018.16
2019-06-27T22:30:47.750Z,102023.83
2019-06-27T22:33:18.241Z,102023.80
2019-06-27T22:35:48.679Z,102024.26
2019-06-27T22:38:36.901Z,102018.62
2019-06-27T22:41:25.308Z,102019.50
2019-06-27T22:44:13.597Z,102028.61
2019-06-27T22:47:02.303Z,102027.31
2019-06-27T22:49:32.585Z,102021.25
2019-06-27T22:52:34.421Z,102019.94
2019-06-27T22:55:05.930Z,102010.70
2019-06-27T22:57:36.268Z,102011.54
2019-06-27T23:00:07.205Z,102025.14
2019-06-27T23:02:38.084Z,102025.16
2019-06-27T23:05:08.860Z,102033.37
2019-06-27T23:07:39.357Z,102031.67
2019-06-27T23:10:10.044Z,102021.00
2019-06-27T23:12:40.838Z,102017.63
2019-06-27T23:15:11.882Z,102017.00
2019-06-27T23:17:42.416Z,102019.78
2019-06-27T23:20:13.390Z,102014.72
2019-06-27T23:22:43.787Z,102015.09
2019-06-27T23:25:14.983Z,102019.45
2019-06-27T23:27:45.397Z,102013.41
2019-06-27T23:30:16.591Z,102009.74
2019-06-27T23:32:46.970Z,102015.49
2019-06-27T23:35:17.484Z,102020.84
2019-06-27T23:37:48.401Z,102016.09
2019-06-27T23:40:19.738Z,102010.83
2019-06-27T23:42:50.105Z,102010.18
2019-06-27T23:45:21.118Z,102005.75
2019-06-27T23:47:51.825Z,102005.91
2019-06-27T23:50:22.317Z,102008.33
2019-06-27T23:52:53.098Z,102004.30
2019-06-27T23:55:23.653Z,101997.76
2019-06-27T23:57:55.210Z,101998.12
